sensor_id;sensor_type;location;lat;lon;timestamp;P1;durP1;ratioP1;P2;durP2;ratioP2
81398;SDS011;70853;50.074;10.224;2023-10-13T00:01:33;15.82;;;9.20;;
81398;SDS011;70853;50.074;10.224;2023-10-13T00:04:00;16.20;;;11.20;;
81398;SDS011;70853;50.074;10.224;2023-10-13T00:06:27;13.40;;;9.00;;
81398;SDS011;70853;50.074;10.224;2023-10-13T00:08:54;14.73;;;8.15;;
81398;SDS011;70853;50.074;10.224;2023-10-13T00:11:20;15.85;;;11.30;;
81398;SDS011;70853;50.074;10.224;2023-10-13T00:13:58;13.65;;;11.55;;
81398;SDS011;70853;50.074;10.224;2023-10-13T00:16:28;13.20;;;8.80;;
81398;SDS011;70853;50.074;10.224;2023-10-13T00:18:58;14.93;;;11.52;;
81398;SDS011;70853;50.074;10.224;2023-10-13T00:21:24;16.08;;;11.82;;
81398;SDS011;70853;50.074;10.224;2023-10-13T00:24:03;13.88;;;10.15;;
81398;SDS011;70853;50.074;10.224;2023-10-13T00:26:37;17.48;;;9.68;;
81398;SDS011;70853;50.074;10.224;2023-10-13T00:29:03;15.32;;;11.52;;
81398;SDS011;70853;50.074;10.224;2023-10-13T00:31:32;13.82;;;12.18;;
81398;SDS011;70853;50.074;10.224;2023-10-13T00:34:20;13.38;;;9.43;;
81398;SDS011;70853;50.074;10.224;2023-10-13T00:36:54;15.52;;;10.95;;
81398;SDS011;70853;50.074;10.224;2023-10-13T00:39:43;14.75;;;9.60;;
81398;SDS011;70853;50.074;10.224;2023-10-13T00:42:23;14.82;;;9.88;;
81398;SDS011;70853;50.074;10.224;2023-10-13T00:45:11;18.00;;;15.50;;
81398;SDS011;70853;50.074;10.224;2023-10-13T00:47:42;18.58;;;11.05;;
81398;SDS011;70853;50.074;10.224;2023-10-13T00:50:16;20.95;;;11.07;;
81398;SDS011;70853;50.074;10.224;2023-10-13T00:52:50;14.35;;;10.93;;
81398;SDS011;70853;50.074;10.224;2023-10-13T00:55:27;12.93;;;10.20;;
81398;SDS011;70853;50.074;10.224;2023-10-13T00:58:13;14.07;;;10.55;;
81398;SDS011;70853;50.074;10.224;2023-10-13T01:01:04;16.42;;;10.25;;
81398;SDS011;70853;50.074;10.224;2023-10-13T01:03:56;14.50;;;10.38;;
81398;SDS011;70853;50.074;10.224;2023-10-13T01:06:25;12.98;;;9.85;;
81398;SDS011;70853;50.074;10.224;2023-10-13T01:12:13;16.73;;;11.32;;
81398;SDS011;70853;50.074;10.224;2023-10-13T01:14:40;18.35;;;11.93;;
81398;SDS011;70853;50.074;10.224;2023-10-13T01:17:07;21.85;;;10.25;;
81398;SDS011;70853;50.074;10.224;2023-10-13T01:19:36;14.82;;;8.75;;
81398;SDS011;70853;50.074;10.224;2023-10-13T01:22:14;14.05;;;9.35;;
81398;SDS011;70853;50.074;10.224;2023-10-13T01:24:55;13.82;;;9.32;;
81398;SDS011;70853;50.074;10.224;2023-10-13T01:27:35;15.00;;;10.45;;
81398;SDS011;70853;50.074;10.224;2023-10-13T01:30:06;15.18;;;11.63;;
81398;SDS011;70853;50.074;10.224;2023-10-13T01:32:55;17.70;;;9.30;;
81398;SDS011;70853;50.074;10.224;2023-10-13T01:35:26;16.17;;;7.35;;
81398;SDS011;70853;50.074;10.224;2023-10-13T01:38:13;15.60;;;11.57;;
81398;SDS011;70853;50.074;10.224;2023-10-13T01:40:39;22.05;;;8.02;;
81398;SDS011;70853;50.074;10.224;2023-10-13T01:43:09;17.92;;;12.50;;
81398;SDS011;70853;50.074;10.224;2023-10-13T01:45:40;12.95;;;9.98;;
81398;SDS011;70853;50.074;10.224;2023-10-13T01:48:17;13.25;;;10.43;;
81398;SDS011;70853;50.074;10.224;2023-10-13T01:50:47;12.23;;;7.90;;
81398;SDS011;70853;50.074;10.224;2023-10-13T01:53:21;11.65;;;9.18;;
81398;SDS011;70853;50.074;10.224;2023-10-13T01:55:54;12.50;;;10.25;;
81398;SDS011;70853;50.074;10.224;2023-10-13T01:58:24;13.98;;;9.93;;
81398;SDS011;70853;50.074;10.224;2023-10-13T02:03:20;14.50;;;8.93;;
81398;SDS011;70853;50.074;10.224;2023-10-13T02:05:47;13.40;;;7.75;;
81398;SDS011;70853;50.074;10.224;2023-10-13T02:08:14;14.73;;;8.50;;
81398;SDS011;70853;50.074;10.224;2023-10-13T02:11:00;12.25;;;9.48;;
81398;SDS011;70853;50.074;10.224;2023-10-13T02:13:35;13.75;;;8.90;;
81398;SDS011;70853;50.074;10.224;2023-10-13T02:16:07;14.95;;;10.32;;
81398;SDS011;70853;50.074;10.224;2023-10-13T02:18:34;11.32;;;7.18;;
81398;SDS011;70853;50.074;10.224;2023-10-13T02:21:08;11.50;;;7.47;;
81398;SDS011;70853;50.074;10.224;2023-10-13T02:23:40;13.45;;;7.50;;
81398;SDS011;70853;50.074;10.224;2023-10-13T02:26:13;14.45;;;10.55;;
81398;SDS011;70853;50.074;10.224;2023-10-13T02:29:04;13.32;;;8.82;;
81398;SDS011;70853;50.074;10.224;2023-10-13T02:31:34;15.32;;;10.10;;
81398;SDS011;70853;50.074;10.224;2023-10-13T02:34:00;10.27;;;8.55;;
81398;SDS011;70853;50.074;10.224;2023-10-13T02:36:30;11.85;;;7.03;;
81398;SDS011;70853;50.074;10.224;2023-10-13T02:39:04;12.68;;;10.95;;
81398;SDS011;70853;50.074;10.224;2023-10-13T02:41:33;18.48;;;12.25;;
81398;SDS011;70853;50.074;10.224;2023-10-13T02:44:03;14.52;;;8.70;;
81398;SDS011;70853;50.074;10.224;2023-10-13T02:46:35;13.07;;;7.68;;
81398;SDS011;70853;50.074;10.224;2023-10-13T02:49:05;16.00;;;8.02;;
81398;SDS011;70853;50.074;10.224;2023-10-13T02:51:38;15.60;;;11.95;;
81398;SDS011;70853;50.074;10.224;2023-10-13T02:54:08;17.63;;;9.30;;
81398;SDS011;70853;50.074;10.224;2023-10-13T02:56:43;13.43;;;8.63;;
81398;SDS011;70853;50.074;10.224;2023-10-13T02:59:15;12.80;;;6.05;;
81398;SDS011;70853;50.074;10.224;2023-10-13T03:01:44;15.73;;;9.02;;
81398;SDS011;70853;50.074;10.224;2023-10-13T03:04:10;15.18;;;9.20;;
81398;SDS011;70853;50.074;10.224;2023-10-13T03:06:38;15.25;;;9.43;;
81398;SDS011;70853;50.074;10.224;2023-10-13T03:09:07;14.00;;;8.20;;
81398;SDS011;70853;50.074;10.224;2023-10-13T03:11:43;19.42;;;10.70;;
81398;SDS011;70853;50.074;10.224;2023-10-13T03:16:51;16.45;;;10.07;;
81398;SDS011;70853;50.074;10.224;2023-10-13T03:19:20;16.73;;;11.02;;
81398;SDS011;70853;50.074;10.224;2023-10-13T03:21:47;13.88;;;10.20;;
81398;SDS011;70853;50.074;10.224;2023-10-13T03:24:23;12.75;;;9.90;;
81398;SDS011;70853;50.074;10.224;2023-10-13T03:29:50;13.98;;;10.00;;
81398;SDS011;70853;50.074;10.224;2023-10-13T03:32:26;13.30;;;9.50;;
81398;SDS011;70853;50.074;10.224;2023-10-13T03:34:52;14.13;;;10.25;;
81398;SDS011;70853;50.074;10.224;2023-10-13T03:37:42;18.05;;;14.18;;
81398;SDS011;70853;50.074;10.224;2023-10-13T03:40:09;17.38;;;8.38;;
81398;SDS011;70853;50.074;10.224;2023-10-13T03:42:49;13.20;;;9.75;;
81398;SDS011;70853;50.074;10.224;2023-10-13T03:45:35;12.90;;;8.25;;
81398;SDS011;70853;50.074;10.224;2023-10-13T03:48:31;11.60;;;7.22;;
81398;SDS011;70853;50.074;10.224;2023-10-13T03:51:06;13.82;;;6.70;;
81398;SDS011;70853;50.074;10.224;2023-10-13T03:53:56;20.35;;;11.82;;
81398;SDS011;70853;50.074;10.224;2023-10-13T03:56:25;12.52;;;7.85;;
81398;SDS011;70853;50.074;10.224;2023-10-13T03:59:10;14.15;;;12.63;;
81398;SDS011;70853;50.074;10.224;2023-10-13T04:01:40;16.67;;;10.07;;
81398;SDS011;70853;50.074;10.224;2023-10-13T04:04:21;10.23;;;7.45;;
81398;SDS011;70853;50.074;10.224;2023-10-13T04:07:08;10.70;;;8.70;;
81398;SDS011;70853;50.074;10.224;2023-10-13T04:13:20;13.77;;;7.97;;
81398;SDS011;70853;50.074;10.224;2023-10-13T04:16:08;13.93;;;9.05;;
81398;SDS011;70853;50.074;10.224;2023-10-13T04:19:00;15.93;;;10.00;;
81398;SDS011;70853;50.074;10.224;2023-10-13T04:21:28;14.20;;;8.80;;
81398;SDS011;70853;50.074;10.224;2023-10-13T04:24:23;14.32;;;9.30;;
81398;SDS011;70853;50.074;10.224;2023-10-13T04:27:14;10.38;;;7.75;;
81398;SDS011;70853;50.074;10.224;2023-10-13T04:30:08;18.98;;;8.35;;
81398;SDS011;70853;50.074;10.224;2023-10-13T04:32:34;14.25;;;8.73;;
81398;SDS011;70853;50.074;10.224;2023-10-13T04:35:04;18.13;;;9.93;;
81398;SDS011;70853;50.074;10.224;2023-10-13T04:37:44;15.82;;;8.30;;
81398;SDS011;70853;50.074;10.224;2023-10-13T04:40:43;17.67;;;10.05;;
81398;SDS011;70853;50.074;10.224;2023-10-13T04:43:24;13.50;;;8.30;;
81398;SDS011;70853;50.074;10.224;2023-10-13T04:46:13;19.50;;;8.70;;
81398;SDS011;70853;50.074;10.224;2023-10-13T04:49:01;14.55;;;9.07;;
81398;SDS011;70853;50.074;10.224;2023-10-13T04:51:36;13.43;;;8.88;;
81398;SDS011;70853;50.074;10.224;2023-10-13T04:54:25;13.00;;;8.55;;
81398;SDS011;70853;50.074;10.224;2023-10-13T04:57:33;15.90;;;11.80;;
81398;SDS011;70853;50.074;10.224;2023-10-13T05:00:01;15.45;;;9.85;;
81398;SDS011;70853;50.074;10.224;2023-10-13T05:02:35;13.93;;;10.95;;
81398;SDS011;70853;50.074;10.224;2023-10-13T05:05:09;13.77;;;8.88;;
81398;SDS011;70853;50.074;10.224;2023-10-13T05:07:38;14.70;;;10.27;;
81398;SDS011;70853;50.074;10.224;2023-10-13T05:10:25;14.90;;;11.85;;
81398;SDS011;70853;50.074;10.224;2023-10-13T05:13:10;19.65;;;17.60;;
81398;SDS011;70853;50.074;10.224;2023-10-13T05:15:55;11.88;;;7.47;;
81398;SDS011;70853;50.074;10.224;2023-10-13T05:18:48;15.48;;;8.32;;
81398;SDS011;70853;50.074;10.224;2023-10-13T05:21:33;14.07;;;7.43;;
81398;SDS011;70853;50.074;10.224;2023-10-13T05:24:18;15.02;;;8.65;;
81398;SDS011;70853;50.074;10.224;2023-10-13T05:27:02;12.63;;;9.38;;
81398;SDS011;70853;50.074;10.224;2023-10-13T05:29:47;17.15;;;11.15;;
81398;SDS011;70853;50.074;10.224;2023-10-13T05:32:32;12.68;;;8.07;;
81398;SDS011;70853;50.074;10.224;2023-10-13T05:35:18;17.85;;;11.90;;
81398;SDS011;70853;50.074;10.224;2023-10-13T05:38:11;11.70;;;9.07;;
81398;SDS011;70853;50.074;10.224;2023-10-13T05:40:56;15.00;;;13.00;;
81398;SDS011;70853;50.074;10.224;2023-10-13T05:43:42;15.00;;;11.00;;
81398;SDS011;70853;50.074;10.224;2023-10-13T05:46:27;14.70;;;9.95;;
81398;SDS011;70853;50.074;10.224;2023-10-13T05:48:53;13.63;;;8.38;;
81398;SDS011;70853;50.074;10.224;2023-10-13T05:51:29;16.85;;;9.23;;
81398;SDS011;70853;50.074;10.224;2023-10-13T05:54:10;12.23;;;7.90;;
81398;SDS011;70853;50.074;10.224;2023-10-13T05:56:44;14.68;;;8.25;;
81398;SDS011;70853;50.074;10.224;2023-10-13T05:59:32;18.60;;;8.80;;
81398;SDS011;70853;50.074;10.224;2023-10-13T06:02:19;13.88;;;10.88;;
81398;SDS011;70853;50.074;10.224;2023-10-13T06:05:05;16.75;;;9.45;;
81398;SDS011;70853;50.074;10.224;2023-10-13T06:07:50;14.50;;;10.32;;
81398;SDS011;70853;50.074;10.224;2023-10-13T06:10:35;15.38;;;10.60;;
81398;SDS011;70853;50.074;10.224;2023-10-13T06:13:20;17.77;;;8.90;;
81398;SDS011;70853;50.074;10.224;2023-10-13T06:16:28;16.48;;;11.82;;
81398;SDS011;70853;50.074;10.224;2023-10-13T06:19:13;10.85;;;7.35;;
81398;SDS011;70853;50.074;10.224;2023-10-13T06:21:57;15.90;;;10.32;;
81398;SDS011;70853;50.074;10.224;2023-10-13T06:25:05;19.05;;;11.77;;
81398;SDS011;70853;50.074;10.224;2023-10-13T06:27:51;15.77;;;9.73;;
81398;SDS011;70853;50.074;10.224;2023-10-13T06:30:36;16.70;;;9.13;;
81398;SDS011;70853;50.074;10.224;2023-10-13T06:33:02;12.00;;;6.95;;
81398;SDS011;70853;50.074;10.224;2023-10-13T06:35:35;16.98;;;10.25;;
81398;SDS011;70853;50.074;10.224;2023-10-13T06:38:06;13.27;;;8.32;;
81398;SDS011;70853;50.074;10.224;2023-10-13T06:40:44;15.02;;;7.38;;
81398;SDS011;70853;50.074;10.224;2023-10-13T06:43:37;18.02;;;10.85;;
81398;SDS011;70853;50.074;10.224;2023-10-13T06:46:12;17.73;;;8.35;;
81398;SDS011;70853;50.074;10.224;2023-10-13T06:48:42;17.77;;;8.30;;
81398;SDS011;70853;50.074;10.224;2023-10-13T06:51:10;14.18;;;10.48;;
81398;SDS011;70853;50.074;10.224;2023-10-13T06:56:22;13.85;;;8.13;;
81398;SDS011;70853;50.074;10.224;2023-10-13T06:58:53;12.10;;;8.25;;
81398;SDS011;70853;50.074;10.224;2023-10-13T07:01:30;17.08;;;10.73;;
81398;SDS011;70853;50.074;10.224;2023-10-13T07:04:07;15.20;;;13.45;;
81398;SDS011;70853;50.074;10.224;2023-10-13T07:06:39;17.58;;;11.90;;
81398;SDS011;70853;50.074;10.224;2023-10-13T07:09:32;18.02;;;10.18;;
81398;SDS011;70853;50.074;10.224;2023-10-13T07:12:01;17.15;;;8.95;;
81398;SDS011;70853;50.074;10.224;2023-10-13T07:15:10;17.27;;;9.85;;
81398;SDS011;70853;50.074;10.224;2023-10-13T07:17:45;16.30;;;11.60;;
81398;SDS011;70853;50.074;10.224;2023-10-13T07:20:15;13.85;;;8.48;;
81398;SDS011;70853;50.074;10.224;2023-10-13T07:22:49;14.73;;;7.82;;
81398;SDS011;70853;50.074;10.224;2023-10-13T07:25:40;14.15;;;10.45;;
81398;SDS011;70853;50.074;10.224;2023-10-13T07:28:07;15.55;;;13.02;;
81398;SDS011;70853;50.074;10.224;2023-10-13T07:30:37;13.63;;;8.48;;
81398;SDS011;70853;50.074;10.224;2023-10-13T07:33:19;18.17;;;9.38;;
81398;SDS011;70853;50.074;10.224;2023-10-13T07:35:45;15.73;;;10.32;;
81398;SDS011;70853;50.074;10.224;2023-10-13T07:38:25;12.38;;;11.07;;
81398;SDS011;70853;50.074;10.224;2023-10-13T07:40:56;13.70;;;9.73;;
81398;SDS011;70853;50.074;10.224;2023-10-13T07:43:32;12.07;;;7.53;;
81398;SDS011;70853;50.074;10.224;2023-10-13T07:45:58;13.00;;;10.27;;
81398;SDS011;70853;50.074;10.224;2023-10-13T07:48:25;14.43;;;9.70;;
81398;SDS011;70853;50.074;10.224;2023-10-13T07:53:29;14.57;;;9.02;;
81398;SDS011;70853;50.074;10.224;2023-10-13T07:56:09;14.85;;;9.23;;
81398;SDS011;70853;50.074;10.224;2023-10-13T07:59:27;16.33;;;9.85;;
81398;SDS011;70853;50.074;10.224;2023-10-13T08:01:53;11.68;;;9.15;;
81398;SDS011;70853;50.074;10.224;2023-10-13T08:04:37;10.05;;;8.05;;
81398;SDS011;70853;50.074;10.224;2023-10-13T08:07:03;14.02;;;5.65;;
81398;SDS011;70853;50.074;10.224;2023-10-13T08:09:41;14.02;;;7.70;;
81398;SDS011;70853;50.074;10.224;2023-10-13T08:12:09;13.15;;;9.43;;
81398;SDS011;70853;50.074;10.224;2023-10-13T08:14:38;9.00;;;5.75;;
81398;SDS011;70853;50.074;10.224;2023-10-13T08:17:12;14.43;;;6.90;;
81398;SDS011;70853;50.074;10.224;2023-10-13T08:19:39;16.08;;;8.57;;
81398;SDS011;70853;50.074;10.224;2023-10-13T08:22:15;12.27;;;7.55;;
81398;SDS011;70853;50.074;10.224;2023-10-13T08:24:44;13.10;;;9.48;;
81398;SDS011;70853;50.074;10.224;2023-10-13T08:27:11;13.95;;;10.15;;
81398;SDS011;70853;50.074;10.224;2023-10-13T08:29:57;11.85;;;7.05;;
81398;SDS011;70853;50.074;10.224;2023-10-13T08:32:29;16.58;;;10.75;;
81398;SDS011;70853;50.074;10.224;2023-10-13T08:34:56;10.45;;;9.40;;
81398;SDS011;70853;50.074;10.224;2023-10-13T08:40:12;12.77;;;8.32;;
81398;SDS011;70853;50.074;10.224;2023-10-13T08:43:00;12.18;;;8.85;;
81398;SDS011;70853;50.074;10.224;2023-10-13T08:45:29;13.63;;;10.73;;
81398;SDS011;70853;50.074;10.224;2023-10-13T08:47:56;14.13;;;10.45;;
81398;SDS011;70853;50.074;10.224;2023-10-13T08:50:42;9.27;;;7.88;;
81398;SDS011;70853;50.074;10.224;2023-10-13T08:53:23;16.58;;;10.90;;
81398;SDS011;70853;50.074;10.224;2023-10-13T08:56:05;13.55;;;10.35;;
81398;SDS011;70853;50.074;10.224;2023-10-13T08:58:37;12.68;;;8.20;;
81398;SDS011;70853;50.074;10.224;2023-10-13T09:01:25;11.20;;;6.88;;
81398;SDS011;70853;50.074;10.224;2023-10-13T09:04:12;11.35;;;7.28;;
81398;SDS011;70853;50.074;10.224;2023-10-13T09:06:49;13.45;;;9.63;;
81398;SDS011;70853;50.074;10.224;2023-10-13T09:09:46;12.13;;;7.05;;
81398;SDS011;70853;50.074;10.224;2023-10-13T09:12:23;11.57;;;9.02;;
81398;SDS011;70853;50.074;10.224;2023-10-13T09:14:59;10.77;;;7.30;;
81398;SDS011;70853;50.074;10.224;2023-10-13T09:17:42;15.10;;;7.85;;
81398;SDS011;70853;50.074;10.224;2023-10-13T09:20:38;15.85;;;8.55;;
81398;SDS011;70853;50.074;10.224;2023-10-13T09:23:10;8.93;;;7.95;;
81398;SDS011;70853;50.074;10.224;2023-10-13T09:25:57;10.20;;;8.13;;
81398;SDS011;70853;50.074;10.224;2023-10-13T09:28:37;10.43;;;6.15;;
81398;SDS011;70853;50.074;10.224;2023-10-13T09:31:03;14.77;;;8.68;;
81398;SDS011;70853;50.074;10.224;2023-10-13T09:33:35;8.40;;;5.60;;
81398;SDS011;70853;50.074;10.224;2023-10-13T09:36:02;11.50;;;6.75;;
81398;SDS011;70853;50.074;10.224;2023-10-13T09:38:35;10.30;;;8.55;;
81398;SDS011;70853;50.074;10.224;2023-10-13T09:41:04;10.98;;;7.45;;
81398;SDS011;70853;50.074;10.224;2023-10-13T09:43:52;6.95;;;5.05;;
81398;SDS011;70853;50.074;10.224;2023-10-13T09:46:20;11.32;;;6.55;;
81398;SDS011;70853;50.074;10.224;2023-10-13T09:49:05;10.48;;;6.30;;
81398;SDS011;70853;50.074;10.224;2023-10-13T09:52:02;9.90;;;5.97;;
81398;SDS011;70853;50.074;10.224;2023-10-13T09:54:36;10.98;;;6.95;;
81398;SDS011;70853;50.074;10.224;2023-10-13T09:57:17;13.05;;;8.60;;
81398;SDS011;70853;50.074;10.224;2023-10-13T09:59:50;10.18;;;7.78;;
81398;SDS011;70853;50.074;10.224;2023-10-13T10:02:36;10.20;;;4.25;;
81398;SDS011;70853;50.074;10.224;2023-10-13T10:05:09;8.35;;;4.32;;
81398;SDS011;70853;50.074;10.224;2023-10-13T10:07:56;7.68;;;3.95;;
81398;SDS011;70853;50.074;10.224;2023-10-13T10:16:34;8.88;;;7.93;;
81398;SDS011;70853;50.074;10.224;2023-10-13T10:19:25;13.77;;;4.78;;
81398;SDS011;70853;50.074;10.224;2023-10-13T10:22:02;9.73;;;6.47;;
81398;SDS011;70853;50.074;10.224;2023-10-13T10:24:55;8.98;;;5.22;;
81398;SDS011;70853;50.074;10.224;2023-10-13T10:30:28;8.18;;;7.10;;
81398;SDS011;70853;50.074;10.224;2023-10-13T10:32:58;9.35;;;7.57;;
81398;SDS011;70853;50.074;10.224;2023-10-13T10:35:33;8.95;;;5.05;;
81398;SDS011;70853;50.074;10.224;2023-10-13T10:38:08;11.90;;;8.27;;
81398;SDS011;70853;50.074;10.224;2023-10-13T10:46:11;6.10;;;4.80;;
81398;SDS011;70853;50.074;10.224;2023-10-13T10:48:41;8.48;;;3.72;;
81398;SDS011;70853;50.074;10.224;2023-10-13T10:51:10;8.40;;;5.13;;
81398;SDS011;70853;50.074;10.224;2023-10-13T10:53:51;9.02;;;8.00;;
81398;SDS011;70853;50.074;10.224;2023-10-13T10:56:19;11.32;;;4.90;;
81398;SDS011;70853;50.074;10.224;2023-10-13T10:59:06;8.38;;;5.22;;
81398;SDS011;70853;50.074;10.224;2023-10-13T11:01:43;8.57;;;4.60;;
81398;SDS011;70853;50.074;10.224;2023-10-13T11:04:25;5.70;;;4.45;;
81398;SDS011;70853;50.074;10.224;2023-10-13T11:06:59;6.65;;;4.43;;
81398;SDS011;70853;50.074;10.224;2023-10-13T11:09:29;9.20;;;4.43;;
81398;SDS011;70853;50.074;10.224;2023-10-13T11:14:41;7.57;;;4.13;;
81398;SDS011;70853;50.074;10.224;2023-10-13T11:17:18;5.45;;;3.28;;
81398;SDS011;70853;50.074;10.224;2023-10-13T11:20:09;5.68;;;3.15;;
81398;SDS011;70853;50.074;10.224;2023-10-13T11:22:45;8.25;;;4.43;;
81398;SDS011;70853;50.074;10.224;2023-10-13T11:25:29;11.30;;;5.95;;
81398;SDS011;70853;50.074;10.224;2023-10-13T11:28:16;8.27;;;6.72;;
81398;SDS011;70853;50.074;10.224;2023-10-13T11:30:43;8.05;;;5.30;;
81398;SDS011;70853;50.074;10.224;2023-10-13T11:33:15;9.85;;;4.00;;
81398;SDS011;70853;50.074;10.224;2023-10-13T11:35:48;6.20;;;5.20;;
81398;SDS011;70853;50.074;10.224;2023-10-13T11:38:17;6.80;;;4.32;;
81398;SDS011;70853;50.074;10.224;2023-10-13T11:40:57;9.93;;;4.45;;
81398;SDS011;70853;50.074;10.224;2023-10-13T11:43:31;7.22;;;5.90;;
81398;SDS011;70853;50.074;10.224;2023-10-13T11:46:01;7.07;;;4.30;;
81398;SDS011;70853;50.074;10.224;2023-10-13T11:48:33;8.02;;;2.75;;
81398;SDS011;70853;50.074;10.224;2023-10-13T11:51:11;16.85;;;6.57;;
81398;SDS011;70853;50.074;10.224;2023-10-13T11:54:07;4.53;;;3.03;;
81398;SDS011;70853;50.074;10.224;2023-10-13T11:56:33;3.75;;;2.40;;
81398;SDS011;70853;50.074;10.224;2023-10-13T11:58:58;5.38;;;3.58;;
81398;SDS011;70853;50.074;10.224;2023-10-13T12:01:30;5.65;;;3.63;;
81398;SDS011;70853;50.074;10.224;2023-10-13T12:04:14;5.28;;;3.60;;
81398;SDS011;70853;50.074;10.224;2023-10-13T12:06:59;12.32;;;3.15;;
81398;SDS011;70853;50.074;10.224;2023-10-13T12:09:42;6.47;;;4.40;;
81398;SDS011;70853;50.074;10.224;2023-10-13T12:12:24;6.25;;;3.22;;
81398;SDS011;70853;50.074;10.224;2023-10-13T12:14:51;8.98;;;3.72;;
81398;SDS011;70853;50.074;10.224;2023-10-13T12:17:26;7.32;;;5.38;;
81398;SDS011;70853;50.074;10.224;2023-10-13T12:22:23;7.78;;;6.47;;
81398;SDS011;70853;50.074;10.224;2023-10-13T12:25:01;7.03;;;4.13;;
81398;SDS011;70853;50.074;10.224;2023-10-13T12:27:30;5.40;;;2.58;;
81398;SDS011;70853;50.074;10.224;2023-10-13T12:30:11;5.72;;;4.55;;
81398;SDS011;70853;50.074;10.224;2023-10-13T12:32:42;5.95;;;4.60;;
81398;SDS011;70853;50.074;10.224;2023-10-13T12:35:19;11.70;;;4.20;;
81398;SDS011;70853;50.074;10.224;2023-10-13T12:38:10;7.30;;;4.88;;
81398;SDS011;70853;50.074;10.224;2023-10-13T12:43:48;6.47;;;3.95;;
81398;SDS011;70853;50.074;10.224;2023-10-13T12:46:32;10.15;;;4.07;;
81398;SDS011;70853;50.074;10.224;2023-10-13T12:49:16;8.00;;;4.30;;
81398;SDS011;70853;50.074;10.224;2023-10-13T12:52:14;7.57;;;3.60;;
81398;SDS011;70853;50.074;10.224;2023-10-13T12:54:57;8.57;;;5.18;;
81398;SDS011;70853;50.074;10.224;2023-10-13T12:57:26;9.02;;;3.40;;
81398;SDS011;70853;50.074;10.224;2023-10-13T12:59:53;6.78;;;3.15;;
81398;SDS011;70853;50.074;10.224;2023-10-13T13:02:24;6.38;;;4.68;;
81398;SDS011;70853;50.074;10.224;2023-10-13T13:04:51;7.88;;;2.15;;
81398;SDS011;70853;50.074;10.224;2023-10-13T13:07:31;5.53;;;3.45;;
81398;SDS011;70853;50.074;10.224;2023-10-13T13:10:09;10.68;;;4.35;;
81398;SDS011;70853;50.074;10.224;2023-10-13T13:12:39;5.68;;;2.35;;
81398;SDS011;70853;50.074;10.224;2023-10-13T13:15:06;5.93;;;3.10;;
81398;SDS011;70853;50.074;10.224;2023-10-13T13:17:39;8.25;;;4.13;;
81398;SDS011;70853;50.074;10.224;2023-10-13T13:20:06;7.40;;;3.17;;
81398;SDS011;70853;50.074;10.224;2023-10-13T13:22:52;5.13;;;3.20;;
81398;SDS011;70853;50.074;10.224;2023-10-13T13:25:19;5.25;;;3.25;;
81398;SDS011;70853;50.074;10.224;2023-10-13T13:27:51;10.13;;;4.47;;
81398;SDS011;70853;50.074;10.224;2023-10-13T13:30:18;7.97;;;2.85;;
81398;SDS011;70853;50.074;10.224;2023-10-13T13:35:13;13.43;;;4.50;;
81398;SDS011;70853;50.074;10.224;2023-10-13T13:37:39;7.32;;;4.65;;
81398;SDS011;70853;50.074;10.224;2023-10-13T13:40:05;6.25;;;2.50;;
81398;SDS011;70853;50.074;10.224;2023-10-13T13:42:43;11.55;;;2.65;;
81398;SDS011;70853;50.074;10.224;2023-10-13T13:45:17;6.43;;;2.90;;
81398;SDS011;70853;50.074;10.224;2023-10-13T13:47:50;5.43;;;2.75;;
81398;SDS011;70853;50.074;10.224;2023-10-13T13:50:22;7.80;;;3.85;;
81398;SDS011;70853;50.074;10.224;2023-10-13T13:52:53;7.53;;;3.53;;
81398;SDS011;70853;50.074;10.224;2023-10-13T13:55:21;10.35;;;5.93;;
81398;SDS011;70853;50.074;10.224;2023-10-13T13:57:52;7.40;;;3.88;;
81398;SDS011;70853;50.074;10.224;2023-10-13T14:00:18;7.05;;;1.88;;
81398;SDS011;70853;50.074;10.224;2023-10-13T14:03:03;7.78;;;3.72;;
81398;SDS011;70853;50.074;10.224;2023-10-13T14:06:02;8.30;;;3.42;;
81398;SDS011;70853;50.074;10.224;2023-10-13T14:08:32;7.90;;;5.82;;
81398;SDS011;70853;50.074;10.224;2023-10-13T14:11:18;5.40;;;3.15;;
81398;SDS011;70853;50.074;10.224;2023-10-13T14:13:47;9.40;;;4.35;;
81398;SDS011;70853;50.074;10.224;2023-10-13T14:16:36;10.77;;;4.82;;
81398;SDS011;70853;50.074;10.224;2023-10-13T14:19:03;7.60;;;2.70;;
81398;SDS011;70853;50.074;10.224;2023-10-13T14:21:33;7.70;;;2.67;;
81398;SDS011;70853;50.074;10.224;2023-10-13T14:24:00;12.35;;;4.18;;
81398;SDS011;70853;50.074;10.224;2023-10-13T14:26:27;7.03;;;3.13;;
81398;SDS011;70853;50.074;10.224;2023-10-13T14:28:53;9.88;;;3.80;;
81398;SDS011;70853;50.074;10.224;2023-10-13T14:31:33;7.85;;;3.83;;
81398;SDS011;70853;50.074;10.224;2023-10-13T14:34:04;10.52;;;6.30;;
81398;SDS011;70853;50.074;10.224;2023-10-13T14:36:32;7.65;;;5.03;;
81398;SDS011;70853;50.074;10.224;2023-10-13T14:39:00;6.60;;;5.50;;
81398;SDS011;70853;50.074;10.224;2023-10-13T14:41:27;7.07;;;6.35;;
81398;SDS011;70853;50.074;10.224;2023-10-13T14:43:53;7.60;;;6.43;;
81398;SDS011;70853;50.074;10.224;2023-10-13T14:46:22;13.30;;;7.47;;
81398;SDS011;70853;50.074;10.224;2023-10-13T14:48:48;5.57;;;3.05;;
81398;SDS011;70853;50.074;10.224;2023-10-13T14:51:17;10.13;;;4.97;;
81398;SDS011;70853;50.074;10.224;2023-10-13T14:53:44;6.10;;;2.60;;
81398;SDS011;70853;50.074;10.224;2023-10-13T14:56:25;7.43;;;3.85;;
81398;SDS011;70853;50.074;10.224;2023-10-13T14:58:52;11.80;;;7.13;;
81398;SDS011;70853;50.074;10.224;2023-10-13T15:01:19;6.47;;;3.53;;
81398;SDS011;70853;50.074;10.224;2023-10-13T15:03:47;12.52;;;5.35;;
81398;SDS011;70853;50.074;10.224;2023-10-13T15:06:16;6.53;;;2.92;;
81398;SDS011;70853;50.074;10.224;2023-10-13T15:08:54;8.50;;;4.13;;
81398;SDS011;70853;50.074;10.224;2023-10-13T15:13:54;10.40;;;4.47;;
81398;SDS011;70853;50.074;10.224;2023-10-13T15:16:24;7.43;;;3.78;;
81398;SDS011;70853;50.074;10.224;2023-10-13T15:18:52;5.90;;;3.75;;
81398;SDS011;70853;50.074;10.224;2023-10-13T15:21:19;7.78;;;4.47;;
81398;SDS011;70853;50.074;10.224;2023-10-13T15:23:53;9.25;;;4.20;;
81398;SDS011;70853;50.074;10.224;2023-10-13T15:26:25;5.65;;;4.55;;
81398;SDS011;70853;50.074;10.224;2023-10-13T15:28:51;6.35;;;3.35;;
81398;SDS011;70853;50.074;10.224;2023-10-13T15:31:21;9.38;;;3.80;;
81398;SDS011;70853;50.074;10.224;2023-10-13T15:33:59;6.53;;;3.15;;
81398;SDS011;70853;50.074;10.224;2023-10-13T15:36:32;8.68;;;5.70;;
81398;SDS011;70853;50.074;10.224;2023-10-13T15:39:01;7.95;;;5.10;;
81398;SDS011;70853;50.074;10.224;2023-10-13T15:41:28;8.45;;;5.63;;
81398;SDS011;70853;50.074;10.224;2023-10-13T15:43:59;4.80;;;3.95;;
81398;SDS011;70853;50.074;10.224;2023-10-13T15:46:36;8.63;;;2.83;;
81398;SDS011;70853;50.074;10.224;2023-10-13T15:49:02;7.18;;;6.32;;
81398;SDS011;70853;50.074;10.224;2023-10-13T15:51:34;4.70;;;2.90;;
81398;SDS011;70853;50.074;10.224;2023-10-13T15:54:02;3.85;;;2.58;;
81398;SDS011;70853;50.074;10.224;2023-10-13T15:56:29;8.85;;;4.55;;
81398;SDS011;70853;50.074;10.224;2023-10-13T15:59:00;7.63;;;2.92;;
81398;SDS011;70853;50.074;10.224;2023-10-13T16:01:27;7.65;;;5.43;;
81398;SDS011;70853;50.074;10.224;2023-10-13T16:03:54;7.60;;;3.63;;
81398;SDS011;70853;50.074;10.224;2023-10-13T16:06:19;6.47;;;3.92;;